Time;durP1;ratioP1;P1;durP2;ratioP2;P2;SDS_P1;SDS_P2;PMS_P1;PMS_P2;Temp;Humidity;BMP_temperature;BMP_pressure;BME280_temperature;BME280_humidity;BME280_pressure;Samples;Min_cycle;Max_cycle;Signal;HPM_P1;HPM_P2
2023/01/05 00:02:31;;;;;;;;;;;;;;;-8.78;78.25;95598.75;6324365;28;19923;-68
2023/01/05 00:05:35;;;;;;;;;;;;;;;-8.93;78.46;95591.28;6323785;28;19928;-67
2023/01/05 00:08:39;;;;;;;;;;;;;;;-9.15;78.30;95591.47;6324673;28;19982;-68
2023/01/05 00:24:52;;;;;;;;;;;;;;;-9.51;78.83;95593.47;6324219;28;20312;-68
2023/01/05 00:27:57;;;;;;;;;;;;;;;-9.56;78.41;95599.47;6323518;28;19970;-67
2023/01/05 00:30:58;;;;;;;;;;;;;;;-9.64;78.36;95616.50;6323036;28;19931;-68
2023/01/05 00:33:59;;;;;;;;;;;;;;;-9.75;78.33;95614.00;6323700;28;19931;-68
2023/01/05 00:37:05;;;;;;;;;;;;;;;-9.81;78.47;95629.31;6324153;28;20022;-67
2023/01/05 00:40:07;;;;;;;;;;;;;;;-9.88;78.20;95622.56;6323310;28;19924;-68
2023/01/05 00:43:10;;;;;;;;;;;;;;;-10.00;78.27;95619.22;6323079;28;19936;-67
2023/01/05 00:46:13;;;;;;;;;;;;;;;-10.10;78.11;95622.69;6322655;28;19924;-68
2023/01/05 00:49:16;;;;;;;;;;;;;;;-10.18;78.08;95619.34;6322609;28;20298;-67
2023/01/05 00:52:22;;;;;;;;;;;;;;;-10.23;78.14;95626.97;6305775;28;19924;-69
2023/01/05 00:55:24;;;;;;;;;;;;;;;-10.25;78.40;95628.69;6323172;28;19963;-68
2023/01/05 00:58:28;;;;;;;;;;;;;;;-10.28;78.03;95628.72;6323028;28;20309;-67
2023/01/05 01:01:32;;;;;;;;;;;;;;;-10.27;78.20;95627.06;6323213;28;20026;-68
2023/01/05 01:04:33;;;;;;;;;;;;;;;-10.26;78.28;95641.41;6322616;28;19928;-67
2023/01/05 01:07:34;;;;;;;;;;;;;;;-10.25;78.28;95641.38;6322004;28;19924;-67
2023/01/05 01:10:39;;;;;;;;;;;;;;;-10.20;78.37;95641.38;6323225;28;19990;-67
2023/01/05 01:13:40;;;;;;;;;;;;;;;-10.17;78.21;95654.09;6322033;28;20279;-67
2023/01/05 01:16:44;;;;;;;;;;;;;;;-10.22;78.21;95659.22;6304445;28;19931;-68
2023/01/05 01:19:45;;;;;;;;;;;;;;;-10.25;78.19;95661.75;6320193;28;19924;-68
2023/01/05 01:22:51;;;;;;;;;;;;;;;-10.25;78.15;95663.44;6322816;28;19962;-68
2023/01/05 01:25:52;;;;;;;;;;;;;;;-10.27;78.00;95672.84;6322203;28;20026;-67
2023/01/05 01:28:53;;;;;;;;;;;;;;;-10.33;77.88;95670.28;6322632;28;20377;-67
2023/01/05 01:31:54;;;;;;;;;;;;;;;-10.36;77.92;95677.91;6321855;28;19924;-67
2023/01/05 01:34:57;;;;;;;;;;;;;;;-10.33;77.76;95676.25;6321756;28;20313;-68
2023/01/05 01:37:58;;;;;;;;;;;;;;;-10.32;77.80;95687.25;6321078;28;19924;-68
2023/01/05 01:40:59;;;;;;;;;;;;;;;-10.29;77.77;95682.16;6321865;28;19946;-68
2023/01/05 01:44:00;;;;;;;;;;;;;;;-10.24;77.69;95688.03;6321893;28;19931;-68
2023/01/05 01:47:01;;;;;;;;;;;;;;;-10.12;77.81;95690.53;6303634;28;19942;-68
2023/01/05 01:50:09;;;;;;;;;;;;;;;-9.92;78.07;95692.16;6322253;28;19924;-68
2023/01/05 01:53:17;;;;;;;;;;;;;;;-9.72;78.13;95692.91;6321878;28;19928;-68
2023/01/05 01:56:22;;;;;;;;;;;;;;;-9.55;77.93;95698.75;6321230;28;19969;-68
2023/01/05 01:59:26;;;;;;;;;;;;;;;-9.39;77.78;95691.03;6321149;28;20010;-68
2023/01/05 02:02:28;;;;;;;;;;;;;;;-9.29;77.87;95695.19;6321805;28;19924;-68
2023/01/05 02:05:32;;;;;;;;;;;;;;;-9.23;77.27;95699.41;6304273;28;19928;-68
2023/01/05 02:08:34;;;;;;;;;;;;;;;-9.19;77.24;95696.81;6321053;28;19924;-68
2023/01/05 02:11:37;;;;;;;;;;;;;;;-9.17;77.36;95702.75;6321562;28;19924;-68
2023/01/05 02:14:52;;;;;;;;;;;;;;;-9.11;77.10;95715.47;6320631;28;19923;-68
2023/01/05 02:18:04;;;;;;;;;;;;;;;-8.94;77.07;95719.59;6321954;28;19943;-68
2023/01/05 02:21:13;;;;;;;;;;;;;;;-8.83;76.63;95717.78;6321568;28;20309;-68
2023/01/05 02:24:27;;;;;;;;;;;;;;;-8.69;76.57;95713.44;6321511;28;20038;-69
2023/01/05 02:27:48;;;;;;;;;;;;;;;-8.57;76.54;95716.75;6321396;28;19924;-68
2023/01/05 02:30:58;;;;;;;;;;;;;;;-8.51;76.17;95722.63;6321284;28;19931;-67
2023/01/05 02:34:07;;;;;;;;;;;;;;;-8.42;76.16;95711.47;6321238;28;20395;-68
2023/01/05 02:37:23;;;;;;;;;;;;;;;-8.32;76.45;95713.06;6321242;28;20069;-68
2023/01/05 02:40:29;;;;;;;;;;;;;;;-8.27;75.88;95716.38;6321040;28;19924;-67
2023/01/05 02:43:35;;;;;;;;;;;;;;;-8.18;76.16;95720.53;6321178;28;20001;-68
2023/01/05 02:46:41;;;;;;;;;;;;;;;-8.06;76.48;95724.69;6321103;28;19924;-67
2023/01/05 02:49:44;;;;;;;;;;;;;;;-7.95;76.41;95725.44;6320926;28;20346;-67
2023/01/05 02:52:56;;;;;;;;;;;;;;;-7.84;76.28;95733.81;6320797;28;19924;-67
2023/01/05 02:56:05;;;;;;;;;;;;;;;-7.71;75.71;95722.56;6321262;28;19924;-67
2023/01/05 02:59:13;;;;;;;;;;;;;;;-7.61;75.64;95720.75;6320882;28;19924;-67
2023/01/05 03:02:18;;;;;;;;;;;;;;;-7.53;75.23;95715.53;6319960;28;19924;-68
2023/01/05 03:05:33;;;;;;;;;;;;;;;-7.47;75.39;95730.81;6320938;28;19924;-67
2023/01/05 03:08:39;;;;;;;;;;;;;;;-7.39;75.03;95733.22;6303464;28;20080;-67
2023/01/05 03:15:13;;;;;;;;;;;;;;;-7.26;74.99;95735.59;6324578;28;19947;-67
2023/01/05 03:18:18;;;;;;;;;;;;;;;-7.17;75.24;95723.56;6325292;28;19970;-67
2023/01/05 03:21:20;;;;;;;;;;;;;;;-7.06;74.91;95737.03;6325760;28;19924;-67
2023/01/05 03:38:25;;;;;;;;;;;;;;;-6.70;75.10;95747.59;6325354;28;19927;-68
2023/01/05 03:41:29;;;;;;;;;;;;;;;-6.65;74.77;95749.22;6325178;28;19924;-68
2023/01/05 03:44:34;;;;;;;;;;;;;;;-6.63;75.44;95741.50;6325206;28;19924;-68
2023/01/05 03:47:37;;;;;;;;;;;;;;;-6.55;75.49;95742.22;6324196;28;19924;-68
2023/01/05 03:50:38;;;;;;;;;;;;;;;-6.50;75.42;95745.56;6324528;28;19924;-67
2023/01/05 03:53:39;;;;;;;;;;;;;;;-6.44;75.15;95742.91;6324054;28;20410;-67
2023/01/05 03:56:41;;;;;;;;;;;;;;;-6.36;74.79;95761.53;6324886;28;19931;-67
2023/01/05 03:59:44;;;;;;;;;;;;;;;-6.37;74.87;95744.50;6324901;28;19931;-68
2023/01/05 04:02:49;;;;;;;;;;;;;;;-6.32;75.19;95752.91;6324697;28;20015;-68
2023/01/05 04:05:52;;;;;;;;;;;;;;;-6.30;75.35;95759.75;6324745;28;20508;-67
2023/01/05 04:08:53;;;;;;;;;;;;;;;-6.28;75.08;95757.97;6324650;28;19928;-67
2023/01/05 04:11:57;;;;;;;;;;;;;;;-6.24;74.90;95764.75;6324652;28;19924;-67
2023/01/05 04:15:00;;;;;;;;;;;;;;;-6.21;74.79;95773.22;6323694;28;20314;-68
2023/01/05 04:18:01;;;;;;;;;;;;;;;-6.17;75.10;95767.19;6324197;28;20007;-67
2023/01/05 04:21:02;;;;;;;;;;;;;;;-6.15;75.45;95765.44;6323765;28;20425;-67
2023/01/05 04:24:03;;;;;;;;;;;;;;;-6.15;74.70;95769.72;6323470;28;19924;-68
2023/01/05 04:27:07;;;;;;;;;;;;;;;-6.12;75.40;95777.34;6324217;28;19927;-68
2023/01/05 04:30:10;;;;;;;;;;;;;;;-6.15;75.36;95769.72;6324285;28;19924;-68
2023/01/05 04:33:11;;;;;;;;;;;;;;;-6.12;75.54;95775.59;6324201;28;19924;-68
2023/01/05 04:36:12;;;;;;;;;;;;;;;-6.07;75.60;95780.66;6322644;28;19935;-67
2023/01/05 04:39:16;;;;;;;;;;;;;;;-5.98;74.79;95782.22;6323961;28;20005;-68
2023/01/05 04:42:25;;;;;;;;;;;;;;;-5.92;74.89;95782.06;6323798;28;20331;-67
2023/01/05 04:45:32;;;;;;;;;;;;;;;-5.95;74.85;95783.00;6323910;28;19924;-67
2023/01/05 04:48:35;;;;;;;;;;;;;;;-5.91;75.07;95779.50;6323748;28;19943;-67
2023/01/05 04:51:39;;;;;;;;;;;;;;;-5.88;74.98;95774.31;6322819;28;19935;-68
2023/01/05 04:54:43;;;;;;;;;;;;;;;-5.82;74.60;95767.41;6305825;28;20382;-68
2023/01/05 04:57:46;;;;;;;;;;;;;;;-5.80;75.25;95775.88;6323438;28;19924;-68
2023/01/05 05:00:50;;;;;;;;;;;;;;;-5.76;74.61;95775.81;6323337;28;19982;-69
2023/01/05 05:04:07;;;;;;;;;;;;;;;-5.83;74.55;95778.50;6322192;28;20013;-69
2023/01/05 05:07:25;;;;;;;;;;;;;;;-5.82;74.66;95780.19;6288330;28;20397;-68
2023/01/05 05:10:29;;;;;;;;;;;;;;;-5.83;74.65;95786.19;6305515;28;20331;-67
2023/01/05 05:13:30;;;;;;;;;;;;;;;-5.80;74.60;95793.81;6322574;28;19924;-67
2023/01/05 05:16:31;;;;;;;;;;;;;;;-5.74;75.12;95796.28;6304689;28;20412;-68
2023/01/05 05:19:33;;;;;;;;;;;;;;;-5.64;74.59;95802.91;6322248;28;19923;-68
2023/01/05 05:22:37;;;;;;;;;;;;;;;-5.58;74.63;95802.78;6322660;28;19924;-69
2023/01/05 05:25:42;;;;;;;;;;;;;;;-5.58;74.72;95807.91;6322931;28;19924;-68
2023/01/05 05:28:43;;;;;;;;;;;;;;;-5.56;75.08;95808.72;6322698;28;20389;-68
2023/01/05 05:31:44;;;;;;;;;;;;;;;-5.56;74.51;95801.03;6320931;28;19931;-67
2023/01/05 05:34:46;;;;;;;;;;;;;;;-5.54;74.90;95804.44;6321375;28;19924;-67
2023/01/05 05:37:51;;;;;;;;;;;;;;;-5.40;74.95;95816.16;6322652;28;19924;-68
2023/01/05 05:40:52;;;;;;;;;;;;;;;-5.33;74.17;95817.69;6322015;28;19947;-68
2023/01/05 05:43:59;;;;;;;;;;;;;;;-5.35;74.22;95819.44;6322017;28;19924;-68
2023/01/05 05:47:03;;;;;;;;;;;;;;;-5.35;74.04;95825.44;6322195;28;19923;-69
2023/01/05 05:50:04;;;;;;;;;;;;;;;-5.47;73.89;95821.38;6321512;28;19917;-68
2023/01/05 05:53:08;;;;;;;;;;;;;;;-5.50;74.41;95825.72;6323863;28;19924;-68
2023/01/05 05:56:09;;;;;;;;;;;;;;;-5.35;74.53;95827.13;6322198;28;19931;-68
2023/01/05 05:59:14;;;;;;;;;;;;;;;-5.17;74.29;95828.50;6321816;28;19924;-68
2023/01/05 06:02:21;;;;;;;;;;;;;;;-5.10;74.26;95830.91;6306045;28;19932;-69
2023/01/05 06:05:22;;;;;;;;;;;;;;;-5.13;73.92;95836.09;6295482;28;20309;-69
2023/01/05 06:08:23;;;;;;;;;;;;;;;-5.12;73.84;95837.81;6296157;28;19936;-69
2023/01/05 06:11:26;;;;;;;;;;;;;;;-5.12;73.92;95834.38;6295980;28;19924;-68
2023/01/05 06:14:30;;;;;;;;;;;;;;;-5.12;73.68;95835.25;6296707;28;19925;-69
2023/01/05 06:17:33;;;;;;;;;;;;;;;-5.15;73.67;95847.25;6296363;28;19925;-68
2023/01/05 06:20:37;;;;;;;;;;;;;;;-5.16;73.71;95841.28;6296114;28;19924;-68
2023/01/05 06:23:41;;;;;;;;;;;;;;;-5.09;73.86;95847.16;6277184;28;19924;-68
2023/01/05 06:26:44;;;;;;;;;;;;;;;-5.02;73.83;95844.41;6296416;28;19928;-68
2023/01/05 06:29:48;;;;;;;;;;;;;;;-5.00;73.80;95834.97;6296301;28;19928;-68
2023/01/05 06:32:49;;;;;;;;;;;;;;;-5.01;73.62;95838.44;6295725;28;19924;-68
2023/01/05 06:35:53;;;;;;;;;;;;;;;-4.92;74.20;95833.97;6278380;28;20384;-68
2023/01/05 06:38:56;;;;;;;;;;;;;;;-4.77;73.72;95843.91;6296099;28;20390;-67
2023/01/05 06:42:00;;;;;;;;;;;;;;;-4.72;73.10;95842.09;6278428;28;19924;-68
2023/01/05 06:45:03;;;;;;;;;;;;;;;-4.66;72.96;95847.09;6294314;28;19925;-67
2023/01/05 06:48:04;;;;;;;;;;;;;;;-4.52;73.31;95845.06;6294545;28;19932;-68
2023/01/05 06:51:05;;;;;;;;;;;;;;;-4.26;72.93;95835.91;6295264;28;19932;-67
2023/01/05 06:54:07;;;;;;;;;;;;;;;-4.03;72.62;95842.22;6294763;28;19929;-68
2023/01/05 06:57:10;;;;;;;;;;;;;;;-3.96;72.52;95836.03;6294520;28;20349;-67
2023/01/05 07:00:11;;;;;;;;;;;;;;;-3.93;72.52;95838.56;6293889;28;20302;-69
2023/01/05 07:03:12;;;;;;;;;;;;;;;-3.90;72.25;95846.19;6295463;28;20386;-68
2023/01/05 07:06:13;;;;;;;;;;;;;;;-3.85;72.34;95842.63;6294273;28;19924;-67
2023/01/05 07:09:19;;;;;;;;;;;;;;;-3.77;71.99;95845.00;6295490;28;20313;-68
2023/01/05 07:12:20;;;;;;;;;;;;;;;-3.64;72.22;95846.38;6294700;28;19925;-68
2023/01/05 07:15:24;;;;;;;;;;;;;;;-3.50;72.04;95847.75;6295438;28;19940;-68
2023/01/05 07:18:25;;;;;;;;;;;;;;;-3.39;72.09;95850.88;6295099;28;19924;-67
2023/01/05 07:21:26;;;;;;;;;;;;;;;-3.30;72.06;95855.78;6293974;28;19920;-69
2023/01/05 07:24:30;;;;;;;;;;;;;;;-3.17;71.97;95852.00;6294493;28;20316;-69
2023/01/05 07:27:33;;;;;;;;;;;;;;;-3.02;71.77;95855.03;6295188;28;19920;-67
2023/01/05 07:30:37;;;;;;;;;;;;;;;-2.92;71.64;95856.44;6295534;28;19924;-69
2023/01/05 07:33:40;;;;;;;;;;;;;;;-2.78;71.69;95859.47;6295312;28;19926;-68
2023/01/05 07:36:44;;;;;;;;;;;;;;;-2.67;71.71;95868.63;6295241;28;20416;-68
2023/01/05 07:39:47;;;;;;;;;;;;;;;-2.60;71.23;95862.44;6294173;28;19925;-67
2023/01/05 07:42:49;;;;;;;;;;;;;;;-2.58;71.26;95866.63;6295419;28;19925;-68
2023/01/05 07:45:50;;;;;;;;;;;;;;;-2.59;71.33;95872.66;6294143;28;20049;-71
2023/01/05 07:49:02;;;;;;;;;;;;;;;-2.47;71.12;95871.44;6295018;28;20304;-69
2023/01/05 07:52:08;;;;;;;;;;;;;;;-2.33;71.14;95860.72;6294945;28;20302;-69
2023/01/05 07:55:10;;;;;;;;;;;;;;;-2.19;70.53;95862.91;6276899;28;20066;-68
2023/01/05 07:58:15;;;;;;;;;;;;;;;-1.88;70.75;95868.75;6266119;28;20382;-69
2023/01/05 08:01:18;;;;;;;;;;;;;;;-1.45;70.11;95867.34;6299449;28;20301;-68
2023/01/05 08:04:21;;;;;;;;;;;;;;;-1.06;68.95;95863.47;6298903;28;20044;-69
2023/01/05 08:07:24;;;;;;;;;;;;;;;-0.46;68.34;95862.94;6299080;28;19929;-69
2023/01/05 08:10:29;;;;;;;;;;;;;;;0.25;67.81;95861.94;6280612;28;19928;-68
2023/01/05 08:16:52;;;;;;;;;;;;;;;1.63;63.95;95851.66;6298580;28;19931;-69
2023/01/05 08:19:57;;;;;;;;;;;;;;;1.39;63.57;95852.78;6299309;28;19932;-67
2023/01/05 08:23:02;;;;;;;;;;;;;;;2.01;63.28;95851.66;6298984;28;19924;-68
2023/01/05 08:26:04;;;;;;;;;;;;;;;2.58;61.77;95852.34;6298857;28;19924;-68
2023/01/05 08:29:05;;;;;;;;;;;;;;;2.72;61.01;95853.38;6298776;28;19925;-68
2023/01/05 08:32:10;;;;;;;;;;;;;;;2.55;61.36;95865.47;6298702;28;19932;-68
2023/01/05 08:35:13;;;;;;;;;;;;;;;2.36;61.94;95864.69;6298659;28;20352;-69
2023/01/05 08:38:17;;;;;;;;;;;;;;;2.75;61.92;95866.25;6297912;28;19931;-69
2023/01/05 08:41:29;;;;;;;;;;;;;;;4.58;60.17;95862.50;6297757;28;19924;-70
2023/01/05 08:44:33;;;;;;;;;;;;;;;7.19;55.76;95853.16;6298674;28;20390;-70
2023/01/05 08:47:36;;;;;;;;;;;;;;;9.58;49.60;95855.19;6298355;28;19925;-70
2023/01/05 08:50:42;;;;;;;;;;;;;;;9.22;48.73;95849.16;6298512;28;19924;-71
2023/01/05 08:53:46;;;;;;;;;;;;;;;7.80;50.33;95862.97;6298551;28;19924;-70
2023/01/05 08:56:51;;;;;;;;;;;;;;;7.31;50.81;95866.38;6298279;28;19924;-70
2023/01/05 08:59:52;;;;;;;;;;;;;;;7.87;53.56;95866.84;6298358;28;20372;-70
2023/01/05 09:02:53;;;;;;;;;;;;;;;7.46;54.28;95869.72;6297336;28;19931;-69
2023/01/05 09:06:01;;;;;;;;;;;;;;;7.39;55.36;95861.44;6298047;28;20062;-69
2023/01/05 09:09:02;;;;;;;;;;;;;;;8.02;53.46;95863.13;6279115;28;19924;-69
2023/01/05 09:12:04;;;;;;;;;;;;;;;8.44;49.22;95858.44;6296920;28;20404;-69
2023/01/05 09:15:05;;;;;;;;;;;;;;;8.58;49.00;95849.56;6296964;28;19932;-70
2023/01/05 09:18:09;;;;;;;;;;;;;;;7.96;51.60;95853.09;6297710;28;19924;-69
2023/01/05 09:21:12;;;;;;;;;;;;;;;7.01;52.90;95849.16;6296863;28;19931;-69
2023/01/05 09:24:15;;;;;;;;;;;;;;;5.48;56.01;95853.72;6297661;28;20382;-70
2023/01/05 09:27:16;;;;;;;;;;;;;;;4.93;56.60;95853.47;6296982;28;19928;-70
2023/01/05 09:30:22;;;;;;;;;;;;;;;4.25;53.51;95851.31;6296830;28;19924;-70
2023/01/05 09:33:25;;;;;;;;;;;;;;;4.89;58.14;95849.34;6296513;28;19924;-70
2023/01/05 09:36:26;;;;;;;;;;;;;;;6.36;55.15;95856.94;6296010;28;20369;-70
2023/01/05 09:39:29;;;;;;;;;;;;;;;6.59;52.95;95852.84;6297100;28;19924;-70
2023/01/05 09:42:32;;;;;;;;;;;;;;;5.86;54.14;95853.97;6296737;28;19960;-71
2023/01/05 09:45:36;;;;;;;;;;;;;;;6.91;52.67;95861.19;6296653;28;19929;-68
2023/01/05 09:48:40;;;;;;;;;;;;;;;7.23;48.45;95855.56;6296991;28;20346;-69
2023/01/05 09:51:42;;;;;;;;;;;;;;;7.90;52.28;95868.38;6296237;28;20415;-70
2023/01/05 09:54:45;;;;;;;;;;;;;;;9.17;50.78;95860.03;6296678;28;19925;-70
2023/01/05 09:57:53;;;;;;;;;;;;;;;10.18;48.15;95853.94;6296513;28;19924;-70
2023/01/05 10:01:15;;;;;;;;;;;;;;;10.94;48.03;95856.63;6295972;28;19935;-68
2023/01/05 10:04:20;;;;;;;;;;;;;;;11.42;47.09;95856.13;6296073;28;19920;-71
2023/01/05 10:07:29;;;;;;;;;;;;;;;11.69;45.78;95861.72;6296665;28;19924;-71
2023/01/05 10:14:16;;;;;;;;;;;;;;;12.02;44.68;95869.50;6295956;28;19925;-70
2023/01/05 10:17:27;;;;;;;;;;;;;;;9.96;45.00;95867.94;6296586;28;20401;-72
2023/01/05 10:20:39;;;;;;;;;;;;;;;6.58;47.90;95867.69;6295153;28;19931;-71
2023/01/05 10:23:40;;;;;;;;;;;;;;;3.56;50.82;95862.88;6278206;28;19931;-70
2023/01/05 10:26:43;;;;;;;;;;;;;;;1.67;56.28;95857.53;6295643;28;19947;-69
2023/01/05 10:29:45;;;;;;;;;;;;;;;0.36;56.93;95862.34;6295387;28;20026;-70
2023/01/05 10:32:57;;;;;;;;;;;;;;;-0.65;60.09;95861.97;6295500;28;20287;-69
2023/01/05 10:36:06;;;;;;;;;;;;;;;-1.44;61.23;95865.63;6296096;28;19931;-68
2023/01/05 10:39:19;;;;;;;;;;;;;;;-2.00;64.52;95869.16;6296034;28;19924;-69
2023/01/05 10:42:23;;;;;;;;;;;;;;;-2.59;66.76;95869.25;6295961;28;19925;-70
2023/01/05 10:45:27;;;;;;;;;;;;;;;-2.96;67.59;95873.72;6295126;28;19924;-70
2023/01/05 10:48:34;;;;;;;;;;;;;;;-3.12;66.94;95874.19;6277754;28;19924;-68
2023/01/05 10:51:38;;;;;;;;;;;;;;;-3.23;67.47;95883.03;6295933;28;19925;-69
2023/01/05 10:54:42;;;;;;;;;;;;;;;-3.33;67.22;95881.59;6294577;28;19928;-69
2023/01/05 10:57:49;;;;;;;;;;;;;;;-3.50;68.19;95888.91;6295873;28;19924;-69
2023/01/05 11:00:51;;;;;;;;;;;;;;;-3.79;68.37;95882.75;6295005;28;19924;-69
2023/01/05 11:04:06;;;;;;;;;;;;;;;-4.09;68.89;95881.75;6295648;28;20393;-69
2023/01/05 11:07:09;;;;;;;;;;;;;;;-4.38;68.92;95887.56;6295809;28;20118;-69
2023/01/05 11:10:25;;;;;;;;;;;;;;;-4.59;69.37;95889.69;6294661;28;20019;-68
2023/01/05 11:13:44;;;;;;;;;;;;;;;-4.77;69.31;95887.53;6294882;28;19947;-68
2023/01/05 11:16:50;;;;;;;;;;;;;;;-4.92;69.74;95893.00;6294196;28;19932;-68
2023/01/05 11:19:55;;;;;;;;;;;;;;;-5.01;69.77;95894.00;6295600;28;19924;-68
2023/01/05 11:23:01;;;;;;;;;;;;;;;-5.13;69.92;95895.09;6295477;28;19971;-70
2023/01/05 11:26:18;;;;;;;;;;;;;;;-5.35;69.58;95898.91;6294816;28;19932;-68
2023/01/05 11:29:22;;;;;;;;;;;;;;;-5.68;69.50;95902.06;6295671;28;19924;-69
2023/01/05 11:32:23;;;;;;;;;;;;;;;-5.91;69.84;95904.16;6299227;28;20019;-68
2023/01/05 11:35:24;;;;;;;;;;;;;;;-6.18;69.97;95908.03;6299239;28;19970;-69
2023/01/05 11:38:26;;;;;;;;;;;;;;;-6.37;69.89;95900.63;6299576;28;20424;-68
2023/01/05 11:41:29;;;;;;;;;;;;;;;-6.58;70.32;95904.31;6299144;28;19924;-68
2023/01/05 11:44:33;;;;;;;;;;;;;;;-6.81;70.38;95907.19;6300246;28;20390;-69
2023/01/05 11:47:39;;;;;;;;;;;;;;;-6.98;69.76;95911.66;6298453;28;19928;-68
2023/01/05 11:50:45;;;;;;;;;;;;;;;-7.15;69.81;95913.56;6300075;28;20423;-69
2023/01/05 11:53:46;;;;;;;;;;;;;;;-7.31;69.97;95916.28;6307231;28;19938;-69
2023/01/05 11:57:05;;;;;;;;;;;;;;;-7.48;70.06;95913.88;6325111;28;20369;-68
2023/01/05 12:00:21;;;;;;;;;;;;;;;-7.65;70.49;95909.81;6324610;28;19931;-68
2023/01/05 12:03:27;;;;;;;;;;;;;;;-7.79;70.12;95913.34;6324313;28;19920;-69
2023/01/05 12:06:29;;;;;;;;;;;;;;;-7.88;70.45;95922.78;6324130;28;19924;-69
2023/01/05 12:09:30;;;;;;;;;;;;;;;-7.94;70.01;95921.97;6324369;28;19920;-69
2023/01/05 12:12:41;;;;;;;;;;;;;;;-7.96;69.14;95926.25;6324802;28;19931;-69
2023/01/05 12:16:03;;;;;;;;;;;;;;;-8.02;68.13;95931.41;6324135;28;19966;-69
2023/01/05 12:19:19;;;;;;;;;;;;;;;-8.10;68.48;95927.22;6324590;28;19928;-68
2023/01/05 12:22:42;;;;;;;;;;;;;;;-8.15;68.68;95935.75;6324530;28;20024;-69
2023/01/05 12:25:54;;;;;;;;;;;;;;;-8.21;68.88;95929.84;6324058;28;19924;-69
2023/01/05 12:29:07;;;;;;;;;;;;;;;-8.25;68.85;95936.66;6324171;28;19924;-69
2023/01/05 12:32:14;;;;;;;;;;;;;;;-8.34;68.49;95934.19;6323825;28;20088;-68
2023/01/05 12:35:36;;;;;;;;;;;;;;;-8.43;68.53;95930.03;6324253;28;19924;-68
2023/01/05 12:38:46;;;;;;;;;;;;;;;-8.46;68.52;95934.31;6323551;28;19924;-68
2023/01/05 12:42:05;;;;;;;;;;;;;;;-8.45;68.44;95936.00;6323306;28;19924;-69
2023/01/05 12:45:24;;;;;;;;;;;;;;;-8.37;68.31;95936.75;6323527;28;19924;-68
2023/01/05 12:48:31;;;;;;;;;;;;;;;-8.26;68.35;95942.66;6323244;28;19924;-67
2023/01/05 12:51:44;;;;;;;;;;;;;;;-8.22;67.21;95949.41;6323547;28;19924;-69
2023/01/05 12:54:55;;;;;;;;;;;;;;;-8.21;66.99;95943.47;6323736;28;20345;-67
2023/01/05 12:58:03;;;;;;;;;;;;;;;-8.21;66.88;95946.03;6322177;28;20021;-69
2023/01/05 13:01:07;;;;;;;;;;;;;;;-8.27;67.10;95946.03;6322563;28;19930;-68
2023/01/05 13:04:20;;;;;;;;;;;;;;;-8.25;67.00;95951.97;6322710;28;19931;-68
2023/01/05 13:07:31;;;;;;;;;;;;;;;-8.21;67.42;95951.13;6322934;28;20070;-68
2023/01/05 13:10:32;;;;;;;;;;;;;;;-8.17;66.76;95947.69;6322890;28;19924;-68
2023/01/05 13:13:33;;;;;;;;;;;;;;;-8.13;65.38;95954.44;6322737;28;19961;-69
2023/01/05 13:16:40;;;;;;;;;;;;;;;-8.13;66.20;95954.44;6323070;28;20397;-69
2023/01/05 13:19:47;;;;;;;;;;;;;;;-8.08;66.17;95956.13;6323000;28;20301;-68
2023/01/05 13:22:53;;;;;;;;;;;;;;;-8.00;66.12;95954.38;6322736;28;19931;-69
2023/01/05 13:26:04;;;;;;;;;;;;;;;-7.90;66.54;95955.97;6322238;28;20439;-69
2023/01/05 13:29:05;;;;;;;;;;;;;;;-7.86;66.31;95952.56;6322258;28;19924;-68
2023/01/05 13:32:14;;;;;;;;;;;;;;;-7.81;66.01;95940.63;6322660;28;19924;-68
2023/01/05 13:35:27;;;;;;;;;;;;;;;-7.77;66.42;95944.81;6322475;28;20404;-68
2023/01/05 13:38:46;;;;;;;;;;;;;;;-7.78;66.21;95930.38;6321832;28;19989;-69
2023/01/05 13:42:10;;;;;;;;;;;;;;;-7.74;65.83;95937.13;6322566;28;19924;-67
2023/01/05 13:45:29;;;;;;;;;;;;;;;-7.74;66.40;95937.13;6321587;28;19924;-69
2023/01/05 13:48:30;;;;;;;;;;;;;;;-7.71;65.86;95942.22;6321990;28;19931;-69
2023/01/05 13:51:31;;;;;;;;;;;;;;;-7.71;66.26;95942.22;6321993;28;19957;-69
2023/01/05 13:54:50;;;;;;;;;;;;;;;-7.70;65.73;95954.13;6296966;28;19924;-68
2023/01/05 13:57:54;;;;;;;;;;;;;;;-7.66;65.43;95949.00;6296782;28;19924;-69
2023/01/05 14:00:55;;;;;;;;;;;;;;;-7.61;66.08;95942.13;6295985;28;20016;-69
2023/01/05 14:04:02;;;;;;;;;;;;;;;-7.58;65.74;95954.91;6296825;28;19924;-69
2023/01/05 14:07:11;;;;;;;;;;;;;;;-7.54;66.28;95948.88;6296761;28;19931;-69
2023/01/05 14:10:20;;;;;;;;;;;;;;;-7.49;65.82;95952.25;6295801;28;19924;-68
2023/01/05 14:13:39;;;;;;;;;;;;;;;-7.51;65.92;95943.75;6295788;28;20025;-68
2023/01/05 14:16:41;;;;;;;;;;;;;;;-7.78;65.96;95944.84;6295599;28;20279;-68
2023/01/05 14:19:48;;;;;;;;;;;;;;;-7.91;65.37;95949.19;6295584;28;20302;-69
2023/01/05 14:22:52;;;;;;;;;;;;;;;-8.08;65.67;95940.81;6296278;28;19924;-69
2023/01/05 14:25:58;;;;;;;;;;;;;;;-8.41;65.99;95932.56;6295208;28;20398;-70
2023/01/05 14:29:01;;;;;;;;;;;;;;;-8.46;65.96;95934.31;6295034;28;19925;-68
2023/01/05 14:32:06;;;;;;;;;;;;;;;-8.49;66.01;95934.28;6277577;28;20049;-69
2023/01/05 14:35:22;;;;;;;;;;;;;;;-8.49;65.68;95939.41;6278738;28;20022;-69
2023/01/05 14:38:28;;;;;;;;;;;;;;;-8.43;65.99;95955.53;6295602;28;20436;-72
2023/01/05 14:41:34;;;;;;;;;;;;;;;-8.36;65.87;95961.41;6296036;28;19924;-68
2023/01/05 14:44:48;;;;;;;;;;;;;;;-8.45;65.75;95951.31;6295959;28;20317;-68
2023/01/05 14:47:54;;;;;;;;;;;;;;;-8.50;65.52;95950.47;6295898;28;19924;-68
2023/01/05 14:51:12;;;;;;;;;;;;;;;-8.56;65.68;95947.97;6295942;28;19924;-68
2023/01/05 14:54:33;;;;;;;;;;;;;;;-8.54;65.57;95951.34;6295324;28;20034;-68
2023/01/05 14:57:46;;;;;;;;;;;;;;;-8.50;65.56;95955.56;6295591;28;19928;-69
2023/01/05 15:00:56;;;;;;;;;;;;;;;-8.50;65.28;95953.03;6276358;28;19994;-69
2023/01/05 15:04:17;;;;;;;;;;;;;;;-8.66;65.14;95945.47;6295734;28;19924;-68
2023/01/05 15:07:24;;;;;;;;;;;;;;;-8.74;65.59;95952.31;6295906;28;19925;-69
2023/01/05 15:10:41;;;;;;;;;;;;;;;-8.70;65.23;95955.69;6295854;28;19924;-68
2023/01/05 15:17:44;;;;;;;;;;;;;;;-8.56;65.55;95958.16;6292558;28;19924;-69
2023/01/05 15:21:06;;;;;;;;;;;;;;;-8.52;65.16;95967.47;6295531;28;19928;-69
2023/01/05 15:24:45;;;;;;;;;;;;;;;-8.53;65.23;95968.34;6295753;28;19924;-68
2023/01/05 15:28:10;;;;;;;;;;;;;;;-8.55;65.36;95959.84;6173401;28;20037;-68
2023/01/05 15:31:13;;;;;;;;;;;;;;;-8.51;65.60;95962.38;6247052;28;19931;-68
2023/01/05 15:34:18;;;;;;;;;;;;;;;-8.47;65.11;95958.09;6295019;28;19925;-69
2023/01/05 15:37:28;;;;;;;;;;;;;;;-8.40;65.14;95957.22;6294329;28;19924;-68
2023/01/05 15:40:31;;;;;;;;;;;;;;;-8.36;65.46;95967.34;6294347;28;19924;-69
2023/01/05 15:43:38;;;;;;;;;;;;;;;-8.35;65.42;95965.66;6295384;28;20280;-69
2023/01/05 15:46:41;;;;;;;;;;;;;;;-8.39;65.38;95951.25;6294277;28;20302;-68
2023/01/05 15:49:43;;;;;;;;;;;;;;;-8.39;65.49;95935.94;6294096;28;20331;-68
2023/01/05 15:52:51;;;;;;;;;;;;;;;-8.34;65.42;95948.66;6286253;28;19923;-68
2023/01/05 15:55:52;;;;;;;;;;;;;;;-8.33;65.33;95951.19;6319951;28;19924;-68
2023/01/05 15:58:54;;;;;;;;;;;;;;;-8.32;65.13;95950.34;6319925;28;19931;-69
2023/01/05 16:02:00;;;;;;;;;;;;;;;-8.32;65.36;95942.69;6320519;28;20006;-68
2023/01/05 16:05:20;;;;;;;;;;;;;;;-8.32;65.15;95952.91;6319248;28;19924;-69
2023/01/05 16:08:23;;;;;;;;;;;;;;;-8.34;65.28;95949.50;6319996;28;19924;-68
2023/01/05 16:11:32;;;;;;;;;;;;;;;-8.30;65.68;95946.06;6319745;28;19928;-69
2023/01/05 16:14:40;;;;;;;;;;;;;;;-8.24;65.48;95952.81;6319913;28;20019;-68
2023/01/05 16:17:44;;;;;;;;;;;;;;;-8.22;65.23;95953.66;6321385;28;20073;-68
2023/01/05 16:20:49;;;;;;;;;;;;;;;-8.24;65.47;95961.31;6323264;28;19924;-68
2023/01/05 16:24:02;;;;;;;;;;;;;;;-8.26;65.48;95960.50;6324125;28;20313;-68
2023/01/05 16:27:04;;;;;;;;;;;;;;;-8.26;65.24;95957.97;6323370;28;19924;-69
2023/01/05 16:30:24;;;;;;;;;;;;;;;-8.27;64.94;95950.28;6323705;28;20017;-67
2023/01/05 16:33:33;;;;;;;;;;;;;;;-8.27;65.33;95951.13;6323256;28;19968;-69
2023/01/05 16:36:36;;;;;;;;;;;;;;;-8.25;65.61;95951.16;6324146;28;19931;-68
2023/01/05 16:39:40;;;;;;;;;;;;;;;-8.24;65.56;95958.78;6323984;28;19931;-68
2023/01/05 16:42:49;;;;;;;;;;;;;;;-8.26;65.46;95957.97;6323944;28;19946;-69
2023/01/05 16:45:57;;;;;;;;;;;;;;;-8.29;65.22;95959.66;6324049;28;20437;-68
2023/01/05 16:49:06;;;;;;;;;;;;;;;-8.31;65.02;95954.59;6323981;28;19924;-69
2023/01/05 16:52:18;;;;;;;;;;;;;;;-8.28;65.02;95949.47;6321646;28;19924;-69